Time;durP1;ratioP1;P1;durP2;ratioP2;P2;SDS_P1;SDS_P2;PMS_P1;PMS_P2;Temp;Humidity;BMP_temperature;BMP_pressure;BME280_temperature;BME280_humidity;BME280_pressure;Samples;Min_cycle;Max_cycle;Signal;HPM_P1;HPM_P2
2021/08/10 00:00:22;;;;;;;8.60;2.72;;;;;;;21.20;75.29;100477.06;5116353;28;20036;-69
2021/08/10 00:02:50;;;;;;;6.57;3.15;;;;;;;20.96;76.89;100480.41;5116402;28;20071;-70
2021/08/10 00:05:19;;;;;;;5.88;2.65;;;;;;;20.79;78.34;100474.78;5116226;28;20126;-70
2021/08/10 00:07:48;;;;;;;6.93;3.28;;;;;;;20.58;79.20;100487.78;5116675;28;20044;-70
2021/08/10 00:10:16;;;;;;;5.90;3.35;;;;;;;20.43;80.82;100486.56;5116371;28;20036;-70
2021/08/10 00:12:46;;;;;;;6.63;3.00;;;;;;;20.53;80.30;100487.34;5116486;28;20430;-70
2021/08/10 00:15:15;;;;;;;6.53;3.22;;;;;;;20.49;80.20;100481.41;5115969;28;20044;-70
2021/08/10 00:17:43;;;;;;;6.18;3.47;;;;;;;20.73;78.63;100488.09;5116246;28;20100;-70
2021/08/10 00:20:12;;;;;;;4.50;3.00;;;;;;;20.58;79.01;100487.78;5115823;28;20435;-70
2021/08/10 00:22:41;;;;;;;7.20;3.42;;;;;;;20.65;78.94;100496.97;5116279;28;20079;-70
2021/08/10 00:25:10;;;;;;;5.50;2.78;;;;;;;20.73;78.62;100490.81;5116159;28;20473;-70
2021/08/10 00:27:38;;;;;;;9.57;3.10;;;;;;;20.75;78.78;100494.22;5115895;28;20416;-70
2021/08/10 00:30:08;;;;;;;4.47;3.10;;;;;;;20.60;79.64;100495.75;5115989;28;20050;-69
2021/08/10 00:32:37;;;;;;;7.00;3.05;;;;;;;20.54;79.72;100503.44;5116316;28;20040;-70
2021/08/10 00:35:06;;;;;;;5.50;3.03;;;;;;;20.45;80.16;100495.38;5116100;28;20089;-70
2021/08/10 00:37:34;;;;;;;6.72;2.92;;;;;;;20.42;80.51;100499.22;5114760;28;20050;-70
2021/08/10 00:40:04;;;;;;;5.70;2.80;;;;;;;20.49;80.03;100497.66;5115802;28;20040;-70
2021/08/10 00:42:32;;;;;;;7.00;2.72;;;;;;;20.33;79.73;100499.25;5115456;28;20054;-70
2021/08/10 00:45:00;;;;;;;6.57;2.97;;;;;;;20.30;80.15;100500.41;5115623;28;20105;-70
2021/08/10 00:47:30;;;;;;;8.27;2.63;;;;;;;20.24;79.95;100501.00;5115253;28;20409;-69
2021/08/10 00:49:59;;;;;;;7.28;3.00;;;;;;;20.28;80.55;100503.28;5115683;28;20130;-70
2021/08/10 00:52:27;;;;;;;5.50;2.95;;;;;;;20.23;80.12;100500.16;5115501;28;20097;-69
2021/08/10 00:54:57;;;;;;;4.43;2.70;;;;;;;20.22;80.52;100497.59;5115543;28;20081;-69
2021/08/10 00:57:28;;;;;;;6.70;2.60;;;;;;;20.22;80.09;100497.59;5115340;28;20429;-70
2021/08/10 00:59:56;;;;;;;6.38;2.60;;;;;;;20.17;79.96;100499.88;5115438;28;20043;-69
2021/08/10 01:02:24;;;;;;;4.57;2.65;;;;;;;20.13;79.57;100501.19;5114763;28;20092;-70
2021/08/10 01:04:55;;;;;;;5.72;2.63;;;;;;;20.21;79.06;100502.16;5115402;28;20549;-70
2021/08/10 01:07:36;;;;;;;8.32;2.90;;;;;;;20.03;79.99;100509.34;5115033;28;20032;-70
2021/08/10 01:10:12;;;;;;;8.68;2.88;;;;;;;20.08;79.80;100507.06;5115164;28;20047;-70
2021/08/10 01:12:47;;;;;;;5.95;2.70;;;;;;;20.10;79.85;100506.91;5115273;28;20126;-70
2021/08/10 01:15:19;;;;;;;5.60;2.58;;;;;;;19.95;80.76;100515.47;5115057;28;20044;-70
2021/08/10 01:17:56;;;;;;;9.95;3.00;;;;;;;19.84;82.28;100512.94;5114894;28;20551;-70
2021/08/10 01:20:41;;;;;;;5.38;2.70;;;;;;;19.78;83.37;100524.34;5114679;28;20035;-70
2021/08/10 01:23:13;;;;;;;8.20;3.20;;;;;;;19.71;84.05;100520.53;5115335;28;20396;-70
2021/08/10 01:25:55;;;;;;;6.80;2.80;;;;;;;19.78;83.33;100518.06;5115193;28;20484;-70
2021/08/10 01:28:40;;;;;;;5.43;2.60;;;;;;;19.83;82.39;100513.94;5114618;28;20123;-70
2021/08/10 01:31:20;;;;;;;5.93;2.60;;;;;;;19.73;83.56;100524.78;5115113;28;20035;-70
2021/08/10 01:33:51;;;;;;;3.95;2.60;;;;;;;19.81;82.87;100524.06;5114900;28;20051;-70
2021/08/10 01:36:22;;;;;;;6.97;2.65;;;;;;;19.78;83.81;100527.03;5114460;28;20572;-70
2021/08/10 01:38:54;;;;;;;5.63;2.53;;;;;;;19.74;83.55;100531.06;5114611;28;20104;-70
2021/08/10 01:41:24;;;;;;;6.57;2.72;;;;;;;19.64;84.16;100530.22;5114732;28;20476;-70
2021/08/10 01:43:54;;;;;;;4.93;2.55;;;;;;;19.58;84.40;100530.78;5114887;28;20032;-69
2021/08/10 01:46:26;;;;;;;5.60;2.55;;;;;;;19.71;82.88;100526.78;5114228;28;20039;-70
2021/08/10 01:48:56;;;;;;;5.47;2.65;;;;;;;19.69;83.58;100536.06;5114617;28;20051;-69
2021/08/10 01:51:30;;;;;;;7.75;2.80;;;;;;;19.65;83.49;100543.59;5114267;28;20036;-70
2021/08/10 01:54:01;;;;;;;5.75;2.63;;;;;;;19.62;83.29;100543.03;5114672;28;20092;-70
2021/08/10 01:56:30;;;;;;;9.60;2.85;;;;;;;19.58;83.99;100533.47;5114286;28;20043;-70
2021/08/10 01:59:01;;;;;;;3.80;2.40;;;;;;;19.61;83.09;100523.25;5114307;28;20503;-70
2021/08/10 02:01:32;;;;;;;4.72;2.72;;;;;;;19.54;84.42;100523.91;5114223;28;20047;-70
2021/08/10 02:04:01;;;;;;;7.68;2.72;;;;;;;19.75;83.29;100521.94;5114479;28;20043;-70
2021/08/10 02:06:30;;;;;;;6.75;2.88;;;;;;;19.65;83.75;100523.78;5114161;28;20043;-70
2021/08/10 02:09:00;;;;;;;9.30;2.95;;;;;;;19.68;83.79;100504.56;5114226;28;20377;-70
2021/08/10 02:11:29;;;;;;;6.13;2.88;;;;;;;19.76;83.64;100511.97;5113649;28;20062;-70
2021/08/10 02:13:59;;;;;;;4.00;2.60;;;;;;;19.62;84.52;100511.41;5113258;28;20499;-70
2021/08/10 02:16:28;;;;;;;4.88;2.85;;;;;;;19.57;84.16;100512.84;5114161;28;20044;-70
2021/08/10 02:18:58;;;;;;;4.75;2.88;;;;;;;19.50;85.10;100501.72;5114219;28;20055;-69
2021/08/10 02:21:32;;;;;;;6.50;3.13;;;;;;;19.39;85.97;100510.81;5113830;27;20040;-70
2021/08/10 02:24:04;;;;;;;6.82;3.30;;;;;;;19.36;86.44;100508.41;5114119;28;20093;-70
2021/08/10 02:26:37;;;;;;;4.78;3.00;;;;;;;19.13;88.55;100509.69;5113815;28;20043;-70
2021/08/10 02:29:05;;;;;;;7.17;3.17;;;;;;;19.09;89.41;100514.50;5113767;28;20046;-70
2021/08/10 02:31:34;;;;;;;8.52;3.05;;;;;;;19.06;89.79;100509.38;5113667;28;20043;-70
2021/08/10 02:34:04;;;;;;;5.70;3.25;;;;;;;19.06;89.63;100508.53;5113628;28;20075;-70
2021/08/10 02:36:34;;;;;;;6.32;3.33;;;;;;;18.97;89.82;100501.25;5113495;28;20044;-70
2021/08/10 02:39:07;;;;;;;5.68;3.53;;;;;;;18.99;89.93;100496.56;5113820;28;20138;-70
2021/08/10 02:41:38;;;;;;;4.68;3.05;;;;;;;18.86;91.51;100500.38;5113407;28;20055;-70
2021/08/10 02:44:09;;;;;;;7.07;3.35;;;;;;;19.06;90.31;100503.97;5113894;28;20043;-70
2021/08/10 02:46:38;;;;;;;6.88;3.17;;;;;;;19.08;89.73;100501.97;5113423;28;20055;-70
2021/08/10 02:49:10;;;;;;;5.78;3.25;;;;;;;18.91;90.83;100504.50;5113494;28;20093;-70
2021/08/10 02:51:39;;;;;;;9.83;3.67;;;;;;;18.97;90.19;100509.38;5113478;28;20400;-70
2021/08/10 02:54:07;;;;;;;5.95;2.90;;;;;;;18.90;90.81;100506.34;5113374;28;20071;-70
2021/08/10 02:56:39;;;;;;;5.38;3.08;;;;;;;18.91;90.85;100509.91;5113432;28;20067;-70
2021/08/10 02:59:13;;;;;;;7.03;3.30;;;;;;;18.92;90.48;100503.53;5113866;28;20044;-70
2021/08/10 03:01:48;;;;;;;4.95;3.35;;;;;;;18.90;90.36;100508.22;5113500;28;20035;-70
2021/08/10 03:04:21;;;;;;;7.80;3.20;;;;;;;18.87;90.88;100509.34;5113343;28;20047;-79
2021/08/10 03:06:50;;;;;;;5.75;3.15;;;;;;;18.86;90.60;100513.91;5113490;28;20396;-70
2021/08/10 03:09:19;;;;;;;6.75;3.30;;;;;;;19.01;90.08;100516.19;5113431;28;20435;-71
2021/08/10 03:11:51;;;;;;;6.95;3.28;;;;;;;19.03;89.76;100523.19;5113464;28;20396;-70
2021/08/10 03:14:21;;;;;;;6.75;3.33;;;;;;;18.94;89.85;100520.47;5113552;28;20047;-71
2021/08/10 03:16:50;;;;;;;5.57;3.22;;;;;;;18.84;90.22;100515.91;5113443;28;20040;-71
2021/08/10 03:19:20;;;;;;;6.30;3.10;;;;;;;18.84;90.61;100520.44;5113417;28;20100;-76
2021/08/10 03:21:50;;;;;;;4.78;2.80;;;;;;;18.75;90.77;100526.69;5113226;28;20105;-70
2021/08/10 03:24:20;;;;;;;7.10;2.92;;;;;;;18.69;91.37;100522.66;5114555;28;20048;-80
2021/08/10 03:26:51;;;;;;;6.38;3.08;;;;;;;18.62;92.28;100517.91;5116600;28;20404;-70
2021/08/10 03:29:22;;;;;;;6.40;3.20;;;;;;;18.60;92.67;100518.06;5116980;28;20044;-72
2021/08/10 03:31:51;;;;;;;7.57;3.13;;;;;;;18.61;92.55;100522.47;5117369;28;20047;-70
2021/08/10 03:34:21;;;;;;;5.82;3.15;;;;;;;18.63;93.02;100528.63;5117168;28;20048;-79
2021/08/10 03:36:50;;;;;;;5.82;2.88;;;;;;;18.63;92.83;100522.34;5117469;28;20035;-70
2021/08/10 03:39:19;;;;;;;6.00;2.97;;;;;;;18.59;92.90;100521.75;5116977;28;20043;-70
2021/08/10 03:41:48;;;;;;;6.45;3.08;;;;;;;18.61;92.66;100519.75;5116998;28;20078;-70
2021/08/10 03:44:17;;;;;;;5.90;2.90;;;;;;;18.68;92.67;100515.56;5117184;28;20043;-70
2021/08/10 03:46:45;;;;;;;5.55;2.60;;;;;;;18.73;92.39;100516.00;5116712;28;20036;-70
2021/08/10 03:49:15;;;;;;;7.97;3.42;;;;;;;18.74;92.94;100517.72;5116887;28;20097;-70
2021/08/10 03:51:44;;;;;;;6.65;2.67;;;;;;;18.77;92.26;100514.72;5116523;28;20046;-70
2021/08/10 03:54:12;;;;;;;7.10;3.30;;;;;;;18.77;92.38;100512.03;5116608;28;20047;-70
2021/08/10 03:56:45;;;;;;;7.85;3.17;;;;;;;18.79;92.46;100515.44;5116411;28;20408;-70
2021/08/10 03:59:16;;;;;;;5.10;2.85;;;;;;;18.79;92.19;100518.16;5116838;28;20040;-70
2021/08/10 04:01:47;;;;;;;5.78;3.03;;;;;;;18.90;91.49;100524.44;5116356;28;20054;-70
2021/08/10 04:04:16;;;;;;;6.88;3.13;;;;;;;19.02;90.41;100523.34;5116635;28;20045;-70
2021/08/10 04:06:46;;;;;;;7.45;3.08;;;;;;;19.05;90.32;100512.22;5116270;28;20067;-70
2021/08/10 04:09:16;;;;;;;7.82;3.72;;;;;;;19.09;89.90;100513.66;5116580;28;20047;-70
2021/08/10 04:11:44;;;;;;;9.55;3.17;;;;;;;19.20;89.79;100516.22;5116055;28;20104;-70
2021/08/10 04:14:14;;;;;;;10.55;3.40;;;;;;;19.57;87.33;100512.84;5116364;28;20040;-70
2021/08/10 04:16:48;;;;;;;7.78;2.97;;;;;;;20.13;83.07;100506.59;5116289;28;20388;-70
2021/08/10 04:19:16;;;;;;;4.80;2.92;;;;;;;20.39;79.44;100504.94;5116278;28;20051;-70
2021/08/10 04:21:46;;;;;;;7.47;2.90;;;;;;;20.73;78.02;100501.66;5115960;28;20039;-70
2021/08/10 04:24:14;;;;;;;6.40;2.72;;;;;;;21.26;75.11;100498.16;5116347;28;20036;-71
2021/08/10 04:26:42;;;;;;;3.88;2.30;;;;;;;21.22;75.12;100503.03;5115986;28;20050;-70
2021/08/10 04:29:10;;;;;;;6.05;2.75;;;;;;;21.37;74.24;100500.66;5115960;28;20040;-70
2021/08/10 04:31:38;;;;;;;6.47;2.70;;;;;;;21.28;73.38;100507.88;5115647;28;20044;-70
2021/08/10 04:34:07;;;;;;;5.43;2.70;;;;;;;20.89;75.23;100507.25;5115838;28;20044;-71
2021/08/10 04:36:35;;;;;;;8.20;2.80;;;;;;;20.72;76.21;100505.38;5114722;28;20150;-71
2021/08/10 04:39:05;;;;;;;5.93;2.88;;;;;;;20.77;75.91;100513.91;5116089;28;20056;-70
2021/08/10 04:41:33;;;;;;;6.65;2.72;;;;;;;20.74;75.61;100508.78;5115498;28;20039;-71
2021/08/10 04:44:01;;;;;;;6.85;3.20;;;;;;;20.96;74.73;100511.09;5115624;28;20113;-71
2021/08/10 04:46:30;;;;;;;8.63;3.08;;;;;;;21.36;72.75;100509.81;5115547;28;20044;-69
2021/08/10 04:49:04;;;;;;;5.18;2.40;;;;;;;21.86;70.54;100514.63;5115658;28;20071;-69
2021/08/10 04:51:32;;;;;;;6.63;2.88;;;;;;;22.60;67.98;100505.94;5115440;28;20431;-70
2021/08/10 04:54:01;;;;;;;10.20;3.58;;;;;;;22.91;66.13;100517.09;5115510;28;20071;-69
2021/08/10 04:56:30;;;;;;;5.18;3.00;;;;;;;23.02;64.95;100511.34;5115362;28;20071;-71
2021/08/10 04:59:00;;;;;;;6.28;2.92;;;;;;;22.49;65.93;100504.34;5115447;28;20036;-71
2021/08/10 05:01:29;;;;;;;6.20;2.83;;;;;;;22.55;66.24;100510.97;5115284;28;20040;-71
2021/08/10 05:03:57;;;;;;;5.13;2.95;;;;;;;22.49;65.90;100512.50;5115650;28;20043;-70
2021/08/10 05:06:25;;;;;;;5.57;3.30;;;;;;;22.13;67.10;100509.09;5114951;28;20047;-77
2021/08/10 05:08:53;;;;;;;7.18;3.30;;;;;;;22.06;66.95;100497.13;5115312;27;20096;-71
2021/08/10 05:11:22;;;;;;;7.55;3.33;;;;;;;21.99;68.49;100501.47;5115155;28;20571;-71
2021/08/10 05:13:51;;;;;;;6.82;3.40;;;;;;;21.94;68.13;100504.69;5114900;28;20039;-70
2021/08/10 05:16:19;;;;;;;7.25;3.38;;;;;;;22.11;67.94;100499.41;5115029;28;20050;-71
2021/08/10 05:18:49;;;;;;;6.07;2.95;;;;;;;22.30;66.84;100504.59;5114977;28;20111;-69
2021/08/10 05:21:19;;;;;;;7.07;2.55;;;;;;;22.68;65.02;100513.22;5114826;28;20071;-70
2021/08/10 05:23:47;;;;;;;5.15;2.70;;;;;;;22.93;64.43;100506.06;5114726;28;20043;-69
2021/08/10 05:26:16;;;;;;;4.85;2.70;;;;;;;23.03;64.38;100512.19;5114840;28;20097;-70
2021/08/10 05:28:45;;;;;;;4.13;2.65;;;;;;;23.54;63.04;100507.50;5114775;28;20042;-69
2021/08/10 05:31:14;;;;;;;6.30;3.00;;;;;;;23.85;61.68;100511.28;5114876;28;20476;-70
2021/08/10 05:33:43;;;;;;;5.10;2.80;;;;;;;24.19;60.29;100504.75;5114421;28;20063;-70
2021/08/10 05:36:11;;;;;;;6.65;2.83;;;;;;;24.70;58.58;100497.06;5114781;28;20585;-69
2021/08/10 05:38:42;;;;;;;7.75;2.80;;;;;;;25.21;56.75;100505.72;5114282;28;20401;-69
2021/08/10 05:41:10;;;;;;;6.57;3.20;;;;;;;25.35;56.04;100504.91;5114675;28;20040;-69
2021/08/10 05:43:38;;;;;;;9.52;3.40;;;;;;;25.54;55.65;100518.06;5114342;28;20531;-70
2021/08/10 05:46:09;;;;;;;4.68;2.55;;;;;;;25.76;54.57;100521.00;5114592;28;20465;-71
2021/08/10 05:48:39;;;;;;;7.43;2.80;;;;;;;25.93;53.72;100533.47;5114053;28;20070;-71
2021/08/10 05:51:07;;;;;;;5.90;2.63;;;;;;;26.06;53.07;100536.44;5114531;28;20040;-71
2021/08/10 05:53:36;;;;;;;5.78;2.42;;;;;;;26.31;50.75;100536.19;5114353;28;20051;-71
2021/08/10 05:56:06;;;;;;;6.93;2.40;;;;;;;26.57;50.35;100535.75;5114352;28;20108;-71
2021/08/10 05:58:34;;;;;;;4.35;2.17;;;;;;;26.45;49.41;100538.97;5112547;28;20043;-71
2021/08/10 06:01:04;;;;;;;4.53;1.83;;;;;;;26.71;48.69;100535.72;5114175;28;20039;-71
2021/08/10 06:03:33;;;;;;;4.20;2.17;;;;;;;26.50;48.91;100531.03;5113964;28;20066;-71
2021/08/10 06:06:03;;;;;;;4.40;2.20;;;;;;;26.65;48.75;100527.44;5113985;28;20369;-71
2021/08/10 06:08:31;;;;;;;6.18;2.38;;;;;;;26.80;48.86;100537.31;5114080;28;20067;-71
2021/08/10 06:10:59;;;;;;;6.03;2.58;;;;;;;26.90;48.57;100542.50;5114097;28;20058;-71
2021/08/10 06:13:27;;;;;;;7.80;2.70;;;;;;;26.64;48.13;100540.28;5113876;28;20070;-71
2021/08/10 06:15:56;;;;;;;5.78;2.30;;;;;;;26.86;49.14;100534.88;5114092;28;20127;-71
2021/08/10 06:18:24;;;;;;;8.30;2.97;;;;;;;26.95;49.41;100544.66;5114202;28;20059;-71
2021/08/10 06:20:52;;;;;;;4.75;2.40;;;;;;;27.17;48.61;100538.22;5113491;28;20043;-70
2021/08/10 06:23:22;;;;;;;6.00;2.55;;;;;;;27.38;48.06;100531.91;5113870;28;20465;-71
2021/08/10 06:25:51;;;;;;;5.82;2.45;;;;;;;27.26;47.33;100537.06;5112661;28;20058;-71
2021/08/10 06:28:19;;;;;;;5.88;2.45;;;;;;;27.37;47.39;100533.81;5113816;28;20063;-71
2021/08/10 06:30:47;;;;;;;5.25;2.40;;;;;;;27.56;47.15;100531.47;5113416;28;20071;-71
2021/08/10 06:33:15;;;;;;;6.75;2.80;;;;;;;27.84;46.97;100531.53;5112928;28;20082;-71
2021/08/10 06:35:44;;;;;;;5.45;2.65;;;;;;;28.13;46.21;100527.75;5113538;28;20044;-71
2021/08/10 06:38:12;;;;;;;6.47;2.10;;;;;;;28.26;45.27;100527.84;5113723;28;20052;-71
2021/08/10 06:40:42;;;;;;;6.50;2.17;;;;;;;28.46;44.99;100526.09;5113439;28;20044;-71
2021/08/10 06:43:10;;;;;;;6.07;2.53;;;;;;;28.51;44.54;100534.59;5113502;28;20457;-70
2021/08/10 06:45:39;;;;;;;6.32;2.38;;;;;;;28.64;43.82;100535.69;5111845;28;20052;-70
2021/08/10 06:48:07;;;;;;;6.28;2.42;;;;;;;28.98;42.00;100538.44;5113668;28;20071;-70
2021/08/10 06:50:35;;;;;;;6.05;2.42;;;;;;;28.79;42.58;100539.16;5113532;28;20067;-70
2021/08/10 06:53:04;;;;;;;7.30;2.15;;;;;;;28.94;42.56;100539.88;5113143;28;20061;-70
2021/08/10 06:55:32;;;;;;;5.05;2.10;;;;;;;29.19;41.78;100534.69;5113131;28;20051;-79
2021/08/10 06:58:02;;;;;;;6.82;2.47;;;;;;;29.39;41.53;100529.25;5113483;28;20395;-70
2021/08/10 07:00:30;;;;;;;8.48;3.25;;;;;;;29.39;42.25;100532.00;5117322;28;20118;-70
2021/08/10 07:02:58;;;;;;;7.57;2.30;;;;;;;29.22;41.94;100536.19;5117659;28;20438;-70
2021/08/10 07:05:27;;;;;;;7.00;2.58;;;;;;;28.87;42.90;100536.25;5117603;28;20372;-70
2021/08/10 07:07:55;;;;;;;10.73;2.92;;;;;;;28.73;42.68;100531.75;5117140;28;20071;-70
2021/08/10 07:10:23;;;;;;;7.18;2.58;;;;;;;28.66;43.22;100528.09;5117236;28;20138;-70
2021/08/10 07:12:51;;;;;;;5.80;2.60;;;;;;;28.51;43.43;100531.00;5117114;28;20047;-70
2021/08/10 07:15:22;;;;;;;6.95;2.35;;;;;;;28.50;42.36;100521.09;5117448;28;20048;-69
2021/08/10 07:17:50;;;;;;;8.18;2.20;;;;;;;28.26;41.76;100527.00;5116980;28;20052;-69
2021/08/10 07:20:19;;;;;;;7.28;2.28;;;;;;;28.14;42.07;100523.97;5117416;28;20082;-70
2021/08/10 07:22:47;;;;;;;5.90;2.10;;;;;;;28.04;42.02;100523.47;5116902;28;20035;-69
2021/08/10 07:25:16;;;;;;;5.03;2.10;;;;;;;27.97;43.48;100515.19;5117177;28;20051;-69
2021/08/10 07:27:45;;;;;;;5.70;2.17;;;;;;;28.06;42.94;100515.91;5117128;28;20071;-69
2021/08/10 07:30:14;;;;;;;4.63;2.20;;;;;;;28.12;41.74;100520.59;5116885;28;20050;-70
2021/08/10 07:32:44;;;;;;;5.00;2.20;;;;;;;28.03;42.85;100516.31;5116816;28;20044;-70
2021/08/10 07:35:13;;;;;;;5.82;2.03;;;;;;;28.09;42.80;100526.47;5117373;28;20040;-70
2021/08/10 07:37:43;;;;;;;6.50;2.10;;;;;;;28.00;42.72;100517.56;5116859;28;20052;-70
2021/08/10 07:40:13;;;;;;;6.05;2.13;;;;;;;27.88;42.60;100519.13;5116919;28;20043;-70
2021/08/10 07:42:42;;;;;;;8.85;2.30;;;;;;;27.79;41.67;100520.31;5116666;28;20051;-70
2021/08/10 07:45:11;;;;;;;5.20;2.05;;;;;;;27.76;43.06;100518.81;5117069;28;20369;-70
2021/08/10 07:47:40;;;;;;;6.43;2.00;;;;;;;27.61;42.55;100518.03;5116489;28;20048;-71
2021/08/10 07:50:11;;;;;;;3.33;1.60;;;;;;;27.50;40.25;100508.44;5116586;28;20035;-70
2021/08/10 07:52:39;;;;;;;3.95;1.40;;;;;;;27.49;40.05;100520.44;5116476;28;20052;-70
2021/08/10 07:55:09;;;;;;;3.90;1.60;;;;;;;27.44;39.92;100516.59;5116724;28;20089;-69
2021/08/10 07:57:41;;;;;;;4.55;2.00;;;;;;;27.47;40.42;100510.72;5116871;28;20051;-70
2021/08/10 08:00:10;;;;;;;5.05;2.08;;;;;;;27.58;40.88;100512.94;5116267;28;20054;-70
2021/08/10 08:02:39;;;;;;;3.50;1.95;;;;;;;27.69;40.54;100515.16;5115939;28;20051;-70
2021/08/10 08:05:08;;;;;;;5.28;2.05;;;;;;;27.72;41.29;100513.94;5116452;28;20047;-70
2021/08/10 08:07:40;;;;;;;6.55;1.80;;;;;;;27.74;41.49;100509.97;5116262;28;20462;-70
2021/08/10 08:10:09;;;;;;;4.45;1.80;;;;;;;27.65;41.35;100508.38;5116213;28;20036;-70
2021/08/10 08:12:38;;;;;;;3.75;1.73;;;;;;;27.65;40.85;100513.84;5115898;28;20044;-80
2021/08/10 08:15:07;;;;;;;3.85;1.90;;;;;;;27.55;39.37;100502.38;5116311;28;20039;-70
2021/08/10 08:17:36;;;;;;;5.68;1.70;;;;;;;27.47;39.36;100510.72;5115957;28;20058;-70
2021/08/10 08:20:17;;;;;;;4.45;1.85;;;;;;;27.33;41.00;100516.09;5116247;28;20035;-69
2021/08/10 08:22:48;;;;;;;5.25;1.98;;;;;;;27.34;41.45;100508.72;5115798;28;20043;-70
2021/08/10 08:25:17;;;;;;;5.05;1.80;;;;;;;27.38;41.61;100507.25;5115755;28;20119;-70
2021/08/10 08:27:46;;;;;;;6.18;2.08;;;;;;;27.43;41.15;100503.94;5116019;28;20052;-70
2021/08/10 08:30:15;;;;;;;4.97;1.90;;;;;;;27.48;41.76;100506.94;5115757;28;20062;-70
2021/08/10 08:32:46;;;;;;;5.13;2.08;;;;;;;27.53;41.61;100509.94;5115758;27;20040;-71
2021/08/10 08:35:14;;;;;;;6.65;1.80;;;;;;;27.70;41.57;100507.78;5115967;27;20118;-70
2021/08/10 08:37:43;;;;;;;5.18;1.95;;;;;;;27.76;41.84;100505.13;5115453;28;20039;-71
2021/08/10 08:40:15;;;;;;;6.57;1.85;;;;;;;27.84;41.53;100504.97;5115688;28;20040;-70
2021/08/10 08:42:43;;;;;;;4.80;1.92;;;;;;;27.95;41.21;100506.31;5115840;28;20046;-69
2021/08/10 08:45:13;;;;;;;3.95;2.00;;;;;;;27.74;41.57;100496.25;5115627;28;20071;-71
2021/08/10 08:47:48;;;;;;;3.25;1.90;;;;;;;27.84;41.57;100502.25;5115165;28;20048;-72
2021/08/10 08:50:17;;;;;;;4.82;2.10;;;;;;;27.91;41.18;100497.66;5114114;28;20431;-71
2021/08/10 08:52:53;;;;;;;4.25;1.80;;;;;;;27.99;40.94;100504.03;5115277;28;20051;-71
2021/08/10 08:55:23;;;;;;;4.78;2.13;;;;;;;28.06;40.11;100496.69;5115719;28;20044;-71
2021/08/10 08:57:51;;;;;;;5.25;1.80;;;;;;;28.02;39.60;100496.25;5115342;28;20040;-71
2021/08/10 09:00:20;;;;;;;4.63;2.10;;;;;;;27.97;40.74;100495.16;5115406;28;20450;-71
2021/08/10 09:02:48;;;;;;;3.97;1.73;;;;;;;27.99;40.48;100498.53;5115059;28;20039;-72
2021/08/10 09:05:17;;;;;;;4.25;2.00;;;;;;;27.88;41.41;100497.19;5115124;28;20695;-71
2021/08/10 09:07:45;;;;;;;6.45;2.20;;;;;;;27.91;41.04;100499.56;5115212;28;20048;-72
2021/08/10 09:10:15;;;;;;;3.78;2.00;;;;;;;27.95;41.01;100496.22;5115208;28;20043;-71
2021/08/10 09:12:47;;;;;;;3.08;1.73;;;;;;;27.93;41.04;100501.03;5115122;28;20043;-71
2021/08/10 09:15:29;;;;;;;7.67;2.33;;;;;;;28.08;40.95;100497.34;5115200;28;20100;-72
2021/08/10 09:18:10;;;;;;;6.20;1.90;;;;;;;28.00;40.45;100494.78;5114784;28;20359;-71
2021/08/10 09:20:39;;;;;;;5.50;2.00;;;;;;;27.90;40.60;100486.91;5115060;28;20050;-71
2021/08/10 09:23:07;;;;;;;4.93;1.90;;;;;;;27.82;40.66;100478.81;5114325;28;20046;-71
2021/08/10 09:25:35;;;;;;;6.25;2.00;;;;;;;28.00;41.28;100483.81;5114875;28;20040;-71
2021/08/10 09:28:09;;;;;;;4.88;2.15;;;;;;;28.08;41.44;100481.75;5114835;28;20122;-71
2021/08/10 09:30:37;;;;;;;5.13;2.00;;;;;;;28.20;41.34;100490.28;5114889;28;20047;-71
2021/08/10 09:33:07;;;;;;;3.80;1.90;;;;;;;28.14;40.10;100491.06;5114517;28;20122;-71
2021/08/10 09:35:37;;;;;;;6.03;2.00;;;;;;;28.36;40.04;100486.38;5114753;28;20093;-71
2021/08/10 09:38:11;;;;;;;4.70;2.50;;;;;;;28.14;39.88;100482.84;5114242;28;20047;-72
2021/08/10 09:40:42;;;;;;;5.07;2.08;;;;;;;27.86;40.21;100483.69;5114807;28;20044;-71
2021/08/10 09:43:32;;;;;;;4.78;2.17;;;;;;;28.04;40.02;100485.09;5114672;28;20047;-71
2021/08/10 09:46:13;;;;;;;4.10;2.00;;;;;;;28.03;40.80;100480.66;5114285;28;20093;-71
2021/08/10 09:48:51;;;;;;;3.33;1.90;;;;;;;28.02;41.27;100487.19;5114423;28;20047;-72
2021/08/10 09:51:22;;;;;;;4.97;2.15;;;;;;;28.05;41.92;100470.34;5114316;28;20047;-71
2021/08/10 09:53:59;;;;;;;3.85;1.85;;;;;;;28.12;41.68;100466.59;5114250;28;20370;-72
2021/08/10 09:56:38;;;;;;;4.57;2.00;;;;;;;28.20;41.23;100469.19;5114479;28;20044;-71
2021/08/10 09:59:08;;;;;;;4.22;2.10;;;;;;;28.12;41.75;100465.75;5114019;28;20050;-71
2021/08/10 10:01:37;;;;;;;9.70;3.28;;;;;;;28.26;42.92;100467.50;5114384;28;20392;-71
2021/08/10 10:04:10;;;;;;;6.20;1.98;;;;;;;28.17;41.67;100463.22;5113998;28;20450;-71
2021/08/10 10:06:39;;;;;;;3.85;2.17;;;;;;;28.36;42.22;100465.28;5114485;28;20039;-71
2021/08/10 10:09:11;;;;;;;5.18;1.98;;;;;;;28.54;41.74;100466.63;5114259;28;20392;-71
2021/08/10 10:11:44;;;;;;;5.97;2.20;;;;;;;28.47;41.70;100469.34;5113945;28;20412;-72
2021/08/10 10:14:14;;;;;;;5.43;2.20;;;;;;;28.47;40.99;100458.34;5114130;28;20047;-71
2021/08/10 10:16:49;;;;;;;4.95;1.92;;;;;;;28.56;40.85;100459.03;5114039;28;20044;-71
2021/08/10 10:19:20;;;;;;;4.10;2.35;;;;;;;28.50;40.69;100466.22;5112860;28;20059;-71
2021/08/10 10:21:51;;;;;;;3.88;2.00;;;;;;;28.60;41.25;100455.69;5113698;28;20044;-71
2021/08/10 10:24:22;;;;;;;5.38;1.98;;;;;;;28.61;41.00;100471.09;5113986;28;20109;-71
2021/08/10 10:26:55;;;;;;;4.95;2.10;;;;;;;28.59;40.27;100455.91;5113743;28;20062;-71
2021/08/10 10:29:26;;;;;;;3.45;2.05;;;;;;;28.58;40.47;100467.94;5113889;28;20058;-71
2021/08/10 10:31:54;;;;;;;4.88;2.00;;;;;;;28.54;40.69;100461.16;5113656;28;20492;-71
2021/08/10 10:34:23;;;;;;;6.63;2.00;;;;;;;28.55;40.18;100463.69;5112859;28;20039;-71
2021/08/10 10:36:52;;;;;;;4.60;2.00;;;;;;;28.49;40.09;100457.13;5113495;28;20063;-71
2021/08/10 10:39:24;;;;;;;5.22;2.28;;;;;;;28.45;40.21;100460.47;5113705;28;20043;-71
2021/08/10 10:41:54;;;;;;;5.25;2.00;;;;;;;28.42;39.70;100458.13;5113554;28;20042;-71
2021/08/10 10:44:41;;;;;;;3.63;2.05;;;;;;;28.45;39.65;100465.94;5113465;28;20047;-71
2021/08/10 10:47:39;;;;;;;3.40;2.00;;;;;;;28.48;40.08;100460.94;5113155;28;20044;-71
2021/08/10 10:50:19;;;;;;;9.05;2.22;;;;;;;28.57;40.54;100458.84;5113373;28;20051;-71
2021/08/10 10:53:21;;;;;;;3.13;2.00;;;;;;;28.47;39.78;100453.75;5113587;28;20050;-71
2021/08/10 10:55:52;;;;;;;4.47;2.03;;;;;;;28.61;40.44;100449.16;5081387;28;20056;-72
2021/08/10 10:58:31;;;;;;;4.18;2.10;;;;;;;28.52;39.61;100451.22;5113568;28;20036;-71
2021/08/10 11:01:19;;;;;;;3.20;1.92;;;;;;;28.56;40.30;100448.91;5113059;28;20046;-71
2021/08/10 11:04:09;;;;;;;4.93;2.20;;;;;;;28.59;39.65;100439.44;5113234;28;20050;-71
2021/08/10 11:06:39;;;;;;;4.80;1.88;;;;;;;28.65;39.96;100444.09;5113581;28;20039;-71
2021/08/10 11:09:08;;;;;;;5.30;2.30;;;;;;;28.72;38.82;100440.31;5113119;28;20456;-71
2021/08/10 11:11:47;;;;;;;4.15;2.30;;;;;;;28.95;38.66;100441.88;5113312;28;20507;-71
2021/08/10 11:14:54;;;;;;;5.75;2.13;;;;;;;29.11;38.75;100440.66;5113304;28;20052;-71
2021/08/10 11:17:24;;;;;;;4.68;2.10;;;;;;;29.20;38.81;100436.66;5113223;28;20448;-71
2021/08/10 11:19:53;;;;;;;4.05;2.20;;;;;;;29.32;38.69;100429.50;5112874;28;20043;-72
2021/08/10 11:22:23;;;;;;;6.57;2.53;;;;;;;29.23;38.44;100437.09;5113105;28;20481;-72
2021/08/10 11:24:52;;;;;;;5.78;2.25;;;;;;;29.17;37.54;100434.34;5113068;28;20060;-72
2021/08/10 11:27:33;;;;;;;4.20;2.10;;;;;;;29.25;37.84;100435.00;5113286;28;20071;-71
2021/08/10 11:30:09;;;;;;;5.03;2.10;;;;;;;28.94;37.83;100426.47;5113113;28;20070;-72
2021/08/10 11:32:46;;;;;;;6.93;2.17;;;;;;;29.06;38.77;100428.41;5113144;28;20434;-70
2021/08/10 11:35:34;;;;;;;3.97;1.98;;;;;;;29.12;38.77;100417.63;5113109;28;20399;-70
2021/08/10 11:38:15;;;;;;;7.85;2.30;;;;;;;29.19;39.01;100418.50;5112974;28;20114;-70
2021/08/10 11:40:55;;;;;;;5.10;2.38;;;;;;;29.20;38.36;100414.69;5113088;28;20130;-70